Krakow, Poland
Current Conditions -  °F | °C
As of 8:30 PM on Sunday 21 Dec 2014 (Local Time) from EPKK Reporting Station
Broken Clouds Broken Clouds  
Wind Chill: 31°   Ceiling: 3300
Heat Index: 39°   Visibility: 6mi
Dew Point: 32°   Wind: 15mph
Humidity: 75%   Direction: 240°WSW
Pressure: 30.21"   Gusts: NA
Location:  50°N, 19.99°E
Report Text: EPKK 211830Z 24013KT 210V280 9999 BKN033 04/00 Q1023
Loading
Personal Weather Stations






























Interactive Weather Map New forecast layout! Learn more

10-Day Weather Forecast

Advertisements
Track Severe Weather on mobile